createdAt,value
2023-04-09T00:00:24.310Z,20.06
2023-04-09T00:01:24.327Z,20.05
2023-04-09T00:02:24.326Z,20.08
2023-04-09T00:03:24.515Z,20.09
2023-04-09T00:04:24.401Z,20.11
2023-04-09T00:05:24.346Z,20.03
2023-04-09T00:06:24.431Z,20.02
2023-04-09T00:07:24.513Z,20.00
2023-04-09T00:08:24.441Z,20.06
2023-04-09T00:09:24.422Z,20.00
2023-04-09T00:10:24.447Z,20.06
2023-04-09T00:11:24.428Z,19.96
2023-04-09T00:12:24.435Z,20.02
2023-04-09T00:13:31.897Z,20.13
2023-04-09T00:14:25.468Z,20.05
2023-04-09T00:15:31.160Z,20.05
2023-04-09T00:16:25.456Z,20.02
2023-04-09T00:17:24.447Z,20.02
2023-04-09T00:18:24.414Z,20.00
2023-04-09T00:19:24.403Z,20.03
2023-04-09T00:20:24.426Z,20.03
2023-04-09T00:21:24.395Z,20.03
2023-04-09T00:22:24.383Z,20.03
2023-04-09T00:23:24.390Z,20.03
2023-04-09T00:24:24.348Z,20.08
2023-04-09T00:25:24.366Z,19.99
2023-04-09T00:26:24.384Z,20.06
2023-04-09T00:27:24.368Z,20.01
2023-04-09T00:28:24.322Z,20.00
2023-04-09T00:29:24.338Z,20.05
2023-04-09T00:30:24.345Z,20.03
2023-04-09T00:31:24.321Z,20.06
2023-04-09T00:32:24.343Z,20.03
2023-04-09T00:33:24.310Z,20.02
2023-04-09T00:34:24.312Z,20.01
2023-04-09T00:35:24.291Z,19.99
2023-04-09T00:36:26.674Z,20.05
2023-04-09T00:37:24.285Z,20.03
2023-04-09T00:38:24.289Z,20.05
2023-04-09T00:39:24.306Z,19.99
2023-04-09T00:40:24.265Z,19.99
2023-04-09T00:41:24.271Z,20.03
2023-04-09T00:42:24.270Z,20.05
2023-04-09T00:43:24.245Z,20.00
2023-04-09T00:44:24.231Z,20.05
2023-04-09T00:45:24.304Z,20.03
2023-04-09T00:46:24.234Z,20.01
2023-04-09T00:47:24.231Z,19.99
2023-04-09T00:48:24.211Z,20.00
2023-04-09T00:49:24.188Z,20.00
2023-04-09T00:50:24.204Z,20.00
2023-04-09T00:51:24.179Z,19.99
2023-04-09T00:52:24.170Z,19.99
2023-04-09T00:53:24.185Z,19.97
2023-04-09T00:54:24.152Z,20.03
2023-04-09T00:55:24.167Z,20.02
2023-04-09T00:56:24.162Z,19.97
2023-04-09T00:57:24.148Z,19.95
2023-04-09T00:58:24.159Z,20.00
2023-04-09T00:59:24.148Z,20.00
2023-04-09T01:00:24.135Z,20.00
2023-04-09T01:01:24.187Z,19.95
2023-04-09T01:02:24.215Z,19.99
2023-04-09T01:03:24.167Z,19.99
2023-04-09T01:04:24.126Z,20.00
2023-04-09T01:05:24.127Z,19.97
2023-04-09T01:06:24.101Z,20.01
2023-04-09T01:07:24.092Z,19.97
2023-04-09T01:08:24.816Z,19.99
2023-04-09T01:09:24.048Z,20.01
2023-04-09T01:10:24.090Z,20.02
2023-04-09T01:11:24.088Z,20.00
2023-04-09T01:12:24.042Z,20.00
2023-04-09T01:13:24.026Z,19.99
2023-04-09T01:14:24.056Z,19.95
2023-04-09T01:15:24.023Z,20.00
2023-04-09T01:16:24.043Z,20.01
2023-04-09T01:17:24.011Z,19.95
2023-04-09T01:18:23.996Z,19.95
2023-04-09T01:19:24.021Z,19.95
2023-04-09T01:20:23.986Z,20.00
2023-04-09T01:21:23.993Z,19.95
2023-04-09T01:22:23.979Z,20.01
2023-04-09T01:23:23.988Z,20.00
2023-04-09T01:24:23.945Z,19.94
2023-04-09T01:25:23.951Z,20.00
2023-04-09T01:26:23.949Z,20.00
2023-04-09T01:27:23.942Z,19.97
2023-04-09T01:28:23.953Z,19.97
2023-04-09T01:29:23.937Z,20.01
2023-04-09T01:30:23.932Z,19.95
2023-04-09T01:31:23.923Z,19.97
2023-04-09T01:32:23.910Z,19.95
2023-04-09T01:33:23.879Z,19.97
2023-04-09T01:34:23.907Z,19.94
2023-04-09T01:35:23.899Z,19.94
2023-04-09T01:36:23.850Z,19.95
2023-04-09T01:37:23.887Z,19.95
2023-04-09T01:38:23.884Z,19.97
2023-04-09T01:39:23.885Z,19.97
2023-04-09T01:40:23.846Z,19.94
2023-04-09T01:41:23.846Z,19.99
2023-04-09T01:42:23.845Z,19.97
2023-04-09T01:43:23.855Z,19.95
2023-04-09T01:44:23.849Z,19.92
2023-04-09T01:45:23.813Z,19.94
2023-04-09T01:46:23.861Z,19.95
2023-04-09T01:47:23.806Z,19.97
2023-04-09T01:48:23.805Z,19.94
2023-04-09T01:49:23.819Z,19.94
2023-04-09T01:50:23.825Z,19.95
2023-04-09T01:51:23.809Z,20.00
2023-04-09T01:52:23.803Z,20.01
2023-04-09T01:53:23.766Z,19.98
2023-04-09T01:54:23.741Z,19.95
2023-04-09T01:55:23.745Z,19.88
2023-04-09T01:56:23.768Z,19.92
2023-04-09T01:57:23.747Z,19.91
2023-04-09T01:58:23.753Z,19.94
2023-04-09T01:59:23.765Z,19.91
2023-04-09T02:00:23.810Z,19.95
2023-04-09T02:01:23.855Z,19.94
2023-04-09T02:02:23.894Z,19.98
2023-04-09T02:03:23.858Z,19.97
2023-04-09T02:04:23.795Z,19.97
2023-04-09T02:05:23.828Z,19.94
2023-04-09T02:06:23.802Z,19.94
2023-04-09T02:07:23.802Z,19.98
2023-04-09T02:08:23.814Z,19.98
2023-04-09T02:09:23.828Z,19.94
2023-04-09T02:10:23.816Z,19.87
2023-04-09T02:11:23.843Z,19.92
2023-04-09T02:12:23.812Z,19.92
2023-04-09T02:13:23.843Z,19.94
2023-04-09T02:14:23.888Z,19.89
2023-04-09T02:15:23.860Z,19.91
2023-04-09T02:16:23.888Z,19.91
2023-04-09T02:17:23.901Z,19.88
2023-04-09T02:18:23.851Z,19.92
2023-04-09T02:19:23.888Z,19.97
2023-04-09T02:20:23.880Z,19.89
2023-04-09T02:21:23.895Z,19.92
2023-04-09T02:22:23.867Z,19.88
2023-04-09T02:23:23.863Z,19.89
2023-04-09T02:24:23.907Z,19.88
2023-04-09T02:25:23.859Z,19.86
2023-04-09T02:26:23.890Z,19.87
2023-04-09T02:27:23.880Z,19.92
2023-04-09T02:28:23.874Z,19.88
2023-04-09T02:29:23.877Z,19.89
2023-04-09T02:30:23.860Z,19.88
2023-04-09T02:31:23.918Z,19.91
2023-04-09T02:32:23.883Z,19.83
2023-04-09T02:33:23.863Z,19.89
2023-04-09T02:34:23.884Z,19.89
2023-04-09T02:35:23.896Z,19.87
2023-04-09T02:36:23.933Z,19.92
2023-04-09T02:37:23.911Z,19.89
2023-04-09T02:38:23.922Z,19.84
2023-04-09T02:39:23.922Z,19.90
2023-04-09T02:40:23.913Z,19.87
2023-04-09T02:41:23.905Z,19.87
2023-04-09T02:42:23.920Z,19.90
2023-04-09T02:43:23.920Z,19.89
2023-04-09T02:44:23.911Z,19.87
2023-04-09T02:45:23.931Z,19.91
2023-04-09T02:46:23.958Z,19.86
2023-04-09T02:47:23.970Z,19.89
2023-04-09T02:48:23.910Z,19.84
2023-04-09T02:49:23.917Z,19.86
2023-04-09T02:50:23.923Z,19.86
2023-04-09T02:51:23.958Z,19.84
2023-04-09T02:52:23.953Z,19.89
2023-04-09T02:53:23.956Z,19.89
2023-04-09T02:54:23.940Z,19.87
2023-04-09T02:55:23.951Z,19.89
2023-04-09T02:56:23.953Z,19.84
2023-04-09T02:57:23.937Z,19.86
2023-04-09T02:58:23.983Z,19.85
2023-04-09T02:59:23.941Z,19.87
2023-04-09T03:00:23.940Z,19.86
2023-04-09T03:01:23.967Z,19.89
2023-04-09T03:02:24.189Z,19.80
2023-04-09T03:03:24.050Z,19.85
2023-04-09T03:04:23.993Z,19.89
2023-04-09T03:05:23.960Z,19.81
2023-04-09T03:06:23.980Z,19.87
2023-04-09T03:07:23.981Z,19.84
2023-04-09T03:08:24.057Z,19.84
2023-04-09T03:09:24.002Z,19.81
2023-04-09T03:10:23.982Z,19.87
2023-04-09T03:11:24.002Z,19.84
2023-04-09T03:12:23.989Z,19.84
2023-04-09T03:13:24.039Z,19.83
2023-04-09T03:14:24.110Z,19.89
2023-04-09T03:15:24.019Z,19.86
2023-04-09T03:16:24.066Z,19.85
2023-04-09T03:17:24.008Z,19.87
2023-04-09T03:18:24.003Z,19.89
2023-04-09T03:19:24.001Z,19.87
2023-04-09T03:20:24.039Z,19.89
2023-04-09T03:21:24.024Z,19.89
2023-04-09T03:22:24.002Z,19.83
2023-04-09T03:23:24.005Z,19.84
2023-04-09T03:24:24.010Z,19.80
2023-04-09T03:25:24.021Z,19.89
2023-04-09T03:26:24.023Z,19.86
2023-04-09T03:27:24.043Z,19.86
2023-04-09T03:28:24.049Z,19.86
2023-04-09T03:29:24.031Z,19.83
2023-04-09T03:30:24.045Z,19.86
2023-04-09T03:31:24.200Z,19.87
2023-04-09T03:32:24.093Z,19.83
2023-04-09T03:33:24.041Z,19.84
2023-04-09T03:34:24.074Z,19.90
2023-04-09T03:35:24.127Z,19.84
2023-04-09T03:36:24.064Z,19.86
2023-04-09T03:37:24.060Z,19.88
2023-04-09T03:38:24.081Z,19.80
2023-04-09T03:39:24.105Z,19.86
2023-04-09T03:40:24.077Z,19.89
2023-04-09T03:41:24.084Z,19.84
2023-04-09T03:42:24.100Z,19.84
2023-04-09T03:43:24.144Z,19.81
2023-04-09T03:44:24.111Z,19.83
2023-04-09T03:45:24.091Z,19.86
2023-04-09T03:46:24.085Z,19.87
2023-04-09T03:47:24.125Z,19.87
2023-04-09T03:48:24.117Z,19.84
2023-04-09T03:49:24.093Z,19.86
2023-04-09T03:50:24.100Z,19.84
2023-04-09T03:51:24.091Z,19.83
2023-04-09T03:52:24.123Z,19.80
2023-04-09T03:53:24.110Z,19.87
2023-04-09T03:54:24.132Z,19.83
2023-04-09T03:55:24.130Z,19.81
2023-04-09T03:56:24.133Z,19.87
2023-04-09T03:57:24.136Z,19.84
2023-04-09T03:58:24.125Z,19.86
2023-04-09T03:59:24.158Z,19.80
2023-04-09T04:00:24.897Z,19.84
2023-04-09T04:01:24.128Z,19.83
2023-04-09T04:02:24.273Z,19.86
2023-04-09T04:03:24.211Z,19.84
2023-04-09T04:04:24.273Z,19.85
2023-04-09T04:05:24.147Z,19.83
2023-04-09T04:06:24.117Z,19.84
2023-04-09T04:07:24.158Z,19.87
2023-04-09T04:08:24.150Z,19.84
2023-04-09T04:09:24.159Z,19.85
2023-04-09T04:10:24.123Z,19.81
2023-04-09T04:11:24.133Z,19.84
2023-04-09T04:12:24.113Z,19.83
2023-04-09T04:13:24.212Z,19.87
2023-04-09T04:14:24.156Z,19.83
2023-04-09T04:15:24.147Z,19.87
2023-04-09T04:16:24.165Z,19.84
2023-04-09T04:17:24.185Z,19.83
2023-04-09T04:18:24.165Z,19.84
2023-04-09T04:19:24.167Z,19.86
2023-04-09T04:20:24.193Z,19.90
2023-04-09T04:21:24.187Z,19.85
2023-04-09T04:22:26.112Z,19.86
2023-04-09T04:23:24.193Z,19.87
2023-04-09T04:24:24.170Z,19.89
2023-04-09T04:25:24.191Z,19.81
2023-04-09T04:26:24.182Z,19.83
2023-04-09T04:27:24.913Z,19.84
2023-04-09T04:28:24.204Z,19.84
2023-04-09T04:29:24.206Z,19.85
2023-04-09T04:30:24.164Z,19.81
2023-04-09T04:31:24.179Z,19.85
2023-04-09T04:32:24.247Z,19.84
2023-04-09T04:33:24.254Z,19.89
2023-04-09T04:34:24.204Z,19.85
2023-04-09T04:35:24.230Z,19.86
2023-04-09T04:36:24.224Z,19.89
2023-04-09T04:37:24.189Z,19.84
2023-04-09T04:38:24.231Z,19.89
2023-04-09T04:39:24.229Z,19.81
2023-04-09T04:40:24.232Z,19.89
2023-04-09T04:41:24.239Z,19.84
2023-04-09T04:42:24.230Z,19.84
2023-04-09T04:43:24.255Z,19.87
2023-04-09T04:44:24.290Z,19.80
2023-04-09T04:45:24.259Z,19.84
2023-04-09T04:46:24.263Z,19.90
2023-04-09T04:47:24.300Z,19.83
2023-04-09T04:48:24.274Z,19.87
2023-04-09T04:49:24.275Z,19.84
2023-04-09T04:50:24.254Z,19.86
2023-04-09T04:51:24.259Z,19.81
2023-04-09T04:52:24.293Z,19.89
2023-04-09T04:53:24.311Z,19.86
2023-04-09T04:54:24.298Z,19.89
2023-04-09T04:55:24.278Z,19.85
2023-04-09T04:56:24.266Z,19.84
2023-04-09T04:57:24.312Z,19.89
2023-04-09T04:58:24.357Z,19.86
2023-04-09T04:59:24.331Z,19.90
2023-04-09T05:00:24.340Z,19.90
2023-04-09T05:01:24.370Z,19.87
2023-04-09T05:02:24.453Z,19.83
2023-04-09T05:03:26.107Z,19.85
2023-04-09T05:04:24.342Z,19.87
2023-04-09T05:05:24.325Z,19.85
2023-04-09T05:06:24.319Z,19.89
2023-04-09T05:07:24.314Z,19.89
2023-04-09T05:08:24.319Z,19.84
2023-04-09T05:09:24.329Z,19.83
2023-04-09T05:10:24.283Z,19.87
2023-04-09T05:11:24.262Z,19.84
2023-04-09T05:12:24.271Z,19.89
2023-04-09T05:13:24.243Z,19.90
2023-04-09T05:14:24.272Z,19.87
2023-04-09T05:15:24.255Z,19.89
2023-04-09T05:16:24.249Z,19.94
2023-04-09T05:17:24.273Z,19.83
2023-04-09T05:18:24.248Z,19.85
2023-04-09T05:19:24.214Z,19.89
2023-04-09T05:20:24.199Z,19.90
2023-04-09T05:21:24.202Z,19.89
2023-04-09T05:22:24.213Z,19.94
2023-04-09T05:23:24.176Z,19.89
2023-04-09T05:24:24.207Z,19.90
2023-04-09T05:25:24.170Z,19.94
2023-04-09T05:26:24.191Z,19.93
2023-04-09T05:27:24.238Z,19.92
2023-04-09T05:28:24.161Z,19.94
2023-04-09T05:29:24.158Z,19.96
2023-04-09T05:30:24.180Z,19.95
2023-04-09T05:31:24.179Z,19.92
2023-04-09T05:32:24.178Z,19.93
2023-04-09T05:33:24.162Z,19.96
2023-04-09T05:34:24.143Z,19.94
2023-04-09T05:35:24.129Z,19.94
2023-04-09T05:36:24.148Z,19.92
2023-04-09T05:37:24.151Z,19.95
2023-04-09T05:38:24.104Z,19.87
2023-04-09T05:39:24.152Z,19.95
2023-04-09T05:40:24.089Z,19.95
2023-04-09T05:41:24.069Z,19.89
2023-04-09T05:42:24.074Z,19.92
2023-04-09T05:43:24.069Z,19.92
2023-04-09T05:44:24.080Z,19.90
2023-04-09T05:45:24.057Z,19.92
2023-04-09T05:46:24.075Z,19.92
2023-04-09T05:47:24.089Z,19.94
2023-04-09T05:48:24.039Z,20.00
2023-04-09T05:49:24.033Z,19.94
2023-04-09T05:50:24.076Z,19.96
2023-04-09T05:51:24.011Z,19.98
2023-04-09T05:52:23.992Z,19.96
2023-04-09T05:53:23.993Z,19.95
2023-04-09T05:54:24.000Z,19.94
2023-04-09T05:55:23.991Z,19.89
2023-04-09T05:56:24.006Z,19.92
2023-04-09T05:57:24.007Z,19.98
2023-04-09T05:58:23.970Z,19.90
2023-04-09T05:59:23.950Z,19.92
2023-04-09T06:00:23.951Z,19.95
2023-04-09T06:01:23.948Z,19.98
2023-04-09T06:02:23.974Z,19.92
2023-04-09T06:03:24.023Z,19.94
2023-04-09T06:04:24.116Z,19.90
2023-04-09T06:05:23.947Z,19.98
2023-04-09T06:06:23.914Z,19.95
2023-04-09T06:07:23.877Z,19.92
2023-04-09T06:08:23.868Z,19.92
2023-04-09T06:09:23.901Z,19.92
2023-04-09T06:10:23.884Z,19.92
2023-04-09T06:11:23.848Z,19.96
2023-04-09T06:12:23.848Z,19.94
2023-04-09T06:13:23.825Z,19.90
2023-04-09T06:14:23.848Z,19.94
2023-04-09T06:15:23.858Z,19.95
2023-04-09T06:16:23.871Z,19.94
2023-04-09T06:17:23.830Z,19.94
2023-04-09T06:18:23.789Z,20.01
2023-04-09T06:19:23.851Z,19.96
2023-04-09T06:20:23.797Z,19.94
2023-04-09T06:21:23.790Z,19.95
2023-04-09T06:22:23.784Z,19.96
2023-04-09T06:23:23.780Z,19.95
2023-04-09T06:24:23.765Z,19.96
2023-04-09T06:25:23.759Z,19.98
2023-04-09T06:26:23.757Z,19.96
2023-04-09T06:27:23.720Z,19.95
2023-04-09T06:28:23.749Z,19.98
2023-04-09T06:29:24.465Z,19.96
2023-04-09T06:30:23.721Z,19.90
2023-04-09T06:31:23.734Z,19.98
2023-04-09T06:32:23.752Z,19.95
2023-04-09T06:33:23.743Z,19.95
2023-04-09T06:34:23.675Z,19.95
2023-04-09T06:35:23.694Z,19.96
2023-04-09T06:36:23.674Z,19.97
2023-04-09T06:37:23.676Z,19.94
2023-04-09T06:38:23.676Z,19.95
2023-04-09T06:39:23.663Z,19.96
2023-04-09T06:40:23.668Z,19.95
2023-04-09T06:41:23.623Z,19.95
2023-04-09T06:42:23.615Z,19.94
2023-04-09T06:43:23.618Z,19.90
2023-04-09T06:44:23.632Z,19.96
2023-04-09T06:45:23.662Z,19.95
2023-04-09T06:46:23.640Z,19.96
2023-04-09T06:47:23.746Z,19.97
2023-04-09T06:48:23.597Z,19.95
2023-04-09T06:49:23.580Z,19.98
2023-04-09T06:50:23.596Z,19.95
2023-04-09T06:51:23.558Z,19.94
2023-04-09T06:52:23.559Z,19.98
2023-04-09T06:53:23.595Z,19.90
2023-04-09T06:54:23.554Z,19.90
2023-04-09T06:55:23.569Z,19.89
2023-04-09T06:56:23.532Z,19.92
2023-04-09T06:57:23.528Z,19.90
2023-04-09T06:58:23.518Z,19.90
2023-04-09T06:59:23.527Z,19.95
2023-04-09T07:00:23.524Z,19.89
2023-04-09T07:01:23.524Z,19.92
2023-04-09T07:02:23.541Z,19.92
2023-04-09T07:03:23.609Z,19.95
2023-04-09T07:04:23.544Z,19.98
2023-04-09T07:05:23.497Z,19.94
2023-04-09T07:06:23.631Z,19.94
2023-04-09T07:07:25.419Z,19.94
2023-04-09T07:08:23.485Z,19.95
2023-04-09T07:09:23.480Z,19.95
2023-04-09T07:10:23.466Z,19.94
2023-04-09T07:11:23.446Z,19.94
2023-04-09T07:12:23.440Z,19.94
2023-04-09T07:13:23.405Z,19.95
2023-04-09T07:14:23.420Z,19.95
2023-04-09T07:15:23.437Z,19.94
2023-04-09T07:16:23.450Z,19.97
2023-04-09T07:17:23.412Z,19.90
2023-04-09T07:18:23.415Z,19.95
2023-04-09T07:19:23.373Z,19.95
2023-04-09T07:20:23.404Z,19.96
2023-04-09T07:21:23.412Z,20.00
2023-04-09T07:22:23.422Z,19.94
2023-04-09T07:23:23.412Z,19.96
2023-04-09T07:24:23.523Z,19.95
2023-04-09T07:25:23.412Z,19.94
2023-04-09T07:26:23.421Z,19.90
2023-04-09T07:27:23.443Z,19.92
2023-04-09T07:28:23.446Z,19.89
2023-04-09T07:29:23.456Z,19.90
2023-04-09T07:30:23.492Z,19.94
2023-04-09T07:31:23.464Z,19.98
2023-04-09T07:32:23.461Z,19.89
2023-04-09T07:33:23.433Z,19.92
2023-04-09T07:34:23.457Z,19.94
2023-04-09T07:35:23.468Z,19.92
2023-04-09T07:36:23.514Z,19.89
2023-04-09T07:37:23.458Z,19.92
2023-04-09T07:38:23.473Z,19.94
2023-04-09T07:39:23.493Z,19.87
2023-04-09T07:40:23.491Z,19.85
2023-04-09T07:41:23.527Z,19.90
2023-04-09T07:42:23.541Z,19.94
2023-04-09T07:43:23.519Z,19.92
2023-04-09T07:44:23.511Z,19.87
2023-04-09T07:45:23.532Z,19.90
2023-04-09T07:46:23.534Z,19.92
2023-04-09T07:47:23.541Z,19.94
2023-04-09T07:48:23.519Z,19.92
2023-04-09T07:49:23.535Z,19.90
2023-04-09T07:50:23.548Z,19.92
2023-04-09T07:51:23.547Z,19.92
2023-04-09T07:52:23.546Z,19.85
2023-04-09T07:53:23.547Z,19.87
2023-04-09T07:54:23.553Z,19.89
2023-04-09T07:55:23.568Z,19.87
2023-04-09T07:56:23.539Z,19.90
2023-04-09T07:57:23.534Z,19.92
2023-04-09T07:58:23.540Z,19.89
2023-04-09T07:59:23.553Z,19.84
2023-04-09T08:00:23.560Z,19.89
2023-04-09T08:01:23.553Z,19.89
2023-04-09T08:02:23.647Z,19.83
2023-04-09T08:03:23.768Z,19.83
2023-04-09T08:04:23.653Z,19.85
2023-04-09T08:05:23.573Z,19.81
2023-04-09T08:06:23.548Z,19.87
2023-04-09T08:07:23.584Z,19.80
2023-04-09T08:08:23.581Z,19.78
2023-04-09T08:09:23.587Z,19.80
2023-04-09T08:10:23.615Z,19.78
2023-04-09T08:11:23.576Z,19.75
2023-04-09T08:12:23.607Z,19.81
2023-04-09T08:13:23.579Z,19.80
2023-04-09T08:14:23.641Z,19.73
2023-04-09T08:15:23.635Z,19.75
2023-04-09T08:16:23.644Z,19.73
2023-04-09T08:17:23.730Z,19.76
2023-04-09T08:18:23.602Z,19.69
2023-04-09T08:19:23.636Z,19.73
2023-04-09T08:20:23.717Z,19.72
2023-04-09T08:21:23.640Z,19.72
2023-04-09T08:22:23.655Z,19.72
2023-04-09T08:23:23.644Z,19.70
2023-04-09T08:24:23.674Z,19.67
2023-04-09T08:25:23.683Z,19.73
2023-04-09T08:26:23.658Z,19.66
2023-04-09T08:27:23.680Z,19.62
2023-04-09T08:28:23.675Z,19.66
2023-04-09T08:29:23.701Z,19.67
2023-04-09T08:30:23.732Z,19.66
2023-04-09T08:31:23.719Z,19.66
2023-04-09T08:32:23.745Z,19.63
2023-04-09T08:33:23.726Z,19.57
2023-04-09T08:34:23.724Z,19.58
2023-04-09T08:35:23.722Z,19.62
2023-04-09T08:36:23.740Z,19.58
2023-04-09T08:37:23.737Z,19.60
2023-04-09T08:38:23.709Z,19.55
2023-04-09T08:39:23.753Z,19.58
2023-04-09T08:40:23.730Z,19.62
2023-04-09T08:41:23.738Z,19.57
2023-04-09T08:42:23.748Z,19.58
2023-04-09T08:43:26.983Z,19.57
2023-04-09T08:44:24.705Z,19.57
2023-04-09T08:45:23.739Z,19.56
2023-04-09T08:46:23.778Z,19.56
2023-04-09T08:47:23.746Z,19.59
2023-04-09T08:48:23.760Z,19.56
2023-04-09T08:49:23.691Z,19.54
2023-04-09T08:50:23.686Z,19.49
2023-04-09T08:51:23.847Z,19.53
2023-04-09T08:52:23.678Z,19.54
2023-04-09T08:53:23.695Z,19.50
2023-04-09T08:54:23.665Z,19.58
2023-04-09T08:55:23.648Z,19.50
2023-04-09T08:56:23.617Z,19.51
2023-04-09T08:57:23.658Z,19.51
2023-04-09T08:58:23.640Z,19.47
2023-04-09T08:59:23.642Z,19.45
2023-04-09T09:00:23.619Z,19.44
2023-04-09T09:01:23.744Z,19.42
2023-04-09T09:02:23.642Z,19.45
2023-04-09T09:03:23.695Z,19.44
2023-04-09T09:04:23.760Z,19.45
2023-04-09T09:05:23.774Z,19.39
2023-04-09T09:06:23.795Z,19.38
2023-04-09T09:07:23.862Z,19.44
2023-04-09T09:08:23.925Z,19.38
2023-04-09T09:09:23.949Z,19.31
2023-04-09T09:10:23.993Z,19.40
2023-04-09T09:11:24.012Z,19.36
2023-04-09T09:12:25.497Z,19.38
2023-04-09T09:13:24.190Z,19.32
2023-04-09T09:14:24.213Z,19.29
2023-04-09T09:15:24.278Z,19.36
2023-04-09T09:16:24.347Z,19.27
2023-04-09T09:17:24.492Z,19.30
2023-04-09T09:18:24.440Z,19.27
2023-04-09T09:19:24.537Z,19.26
2023-04-09T09:20:24.599Z,19.20
2023-04-09T09:21:24.670Z,19.21
2023-04-09T09:22:24.749Z,19.18
2023-04-09T09:23:24.801Z,19.20
2023-04-09T09:24:24.813Z,19.18
2023-04-09T09:25:24.954Z,19.13
2023-04-09T09:26:24.971Z,19.04
2023-04-09T09:27:25.026Z,19.13
2023-04-09T09:28:25.049Z,19.09
2023-04-09T09:29:25.129Z,19.11
2023-04-09T09:30:25.185Z,19.08
2023-04-09T09:31:25.273Z,19.11
2023-04-09T09:32:25.344Z,19.07
2023-04-09T09:33:25.370Z,19.04
2023-04-09T09:34:25.442Z,19.02
2023-04-09T09:35:25.472Z,19.02
2023-04-09T09:36:26.049Z,19.05
2023-04-09T09:37:25.539Z,19.04
2023-04-09T09:38:25.590Z,19.02
2023-04-09T09:39:25.627Z,19.04
2023-04-09T09:40:25.653Z,19.03
2023-04-09T09:41:25.710Z,19.03
2023-04-09T09:42:25.772Z,18.95
2023-04-09T09:43:25.771Z,18.97
2023-04-09T09:44:25.853Z,18.92
2023-04-09T09:45:25.891Z,18.89
2023-04-09T09:46:25.931Z,18.91
2023-04-09T09:47:25.968Z,18.86
2023-04-09T09:48:28.332Z,18.83
2023-04-09T09:49:26.067Z,18.78
2023-04-09T09:50:26.152Z,18.75
2023-04-09T09:51:26.175Z,18.83
2023-04-09T09:52:26.187Z,18.80
2023-04-09T09:53:26.225Z,18.74
2023-04-09T09:54:26.269Z,18.79
2023-04-09T09:55:26.307Z,18.79
2023-04-09T09:56:26.357Z,18.77
2023-04-09T09:57:26.380Z,18.76
2023-04-09T09:58:26.394Z,18.76
2023-04-09T09:59:26.447Z,18.79
2023-04-09T10:00:26.474Z,18.80
2023-04-09T10:01:26.610Z,18.68
2023-04-09T10:02:26.633Z,18.71
2023-04-09T10:03:26.638Z,18.64
2023-04-09T10:04:26.683Z,18.64
2023-04-09T10:05:26.659Z,18.65
2023-04-09T10:06:26.717Z,18.59
2023-04-09T10:07:26.724Z,18.62
2023-04-09T10:08:26.729Z,18.55
2023-04-09T10:09:26.782Z,18.52
2023-04-09T10:10:26.794Z,18.48
2023-04-09T10:11:26.837Z,18.56
2023-04-09T10:12:26.848Z,18.51
2023-04-09T10:13:26.924Z,18.50
2023-04-09T10:14:26.913Z,18.47
2023-04-09T10:15:26.942Z,18.44
2023-04-09T10:16:27.014Z,18.46
2023-04-09T10:17:26.964Z,18.39
2023-04-09T10:18:26.981Z,18.41
2023-04-09T10:19:27.010Z,18.40
2023-04-09T10:20:27.049Z,18.44
2023-04-09T10:21:27.049Z,18.33
2023-04-09T10:22:27.029Z,18.30
2023-04-09T10:23:27.063Z,18.31
2023-04-09T10:24:27.075Z,18.29
2023-04-09T10:25:27.094Z,18.31
2023-04-09T10:26:27.109Z,18.32
2023-04-09T10:27:27.126Z,18.31
2023-04-09T10:28:27.125Z,18.29
2023-04-09T10:29:27.156Z,18.28
2023-04-09T10:30:27.127Z,18.23
2023-04-09T10:31:27.166Z,18.25
2023-04-09T10:32:27.170Z,18.14
2023-04-09T10:33:27.158Z,18.15
2023-04-09T10:34:27.174Z,18.14
2023-04-09T10:35:27.229Z,18.17
2023-04-09T10:36:27.219Z,18.10
2023-04-09T10:37:27.213Z,18.05
2023-04-09T10:38:27.243Z,18.12
2023-04-09T10:39:27.197Z,18.06
2023-04-09T10:40:27.233Z,18.08
2023-04-09T10:41:27.215Z,18.14
2023-04-09T10:42:27.296Z,18.05
2023-04-09T10:43:27.249Z,18.03
2023-04-09T10:44:27.313Z,18.06
2023-04-09T10:45:27.241Z,17.97
2023-04-09T10:46:27.299Z,18.02
2023-04-09T10:47:27.257Z,18.02
2023-04-09T10:48:27.288Z,18.02
2023-04-09T10:49:27.334Z,18.05
2023-04-09T10:50:27.324Z,18.01
2023-04-09T10:51:27.318Z,18.01
2023-04-09T10:52:27.323Z,18.06
2023-04-09T10:53:27.298Z,18.04
2023-04-09T10:54:27.325Z,18.05
2023-04-09T10:55:27.330Z,18.04
2023-04-09T10:56:27.342Z,18.05
2023-04-09T10:57:27.363Z,18.11
2023-04-09T10:58:27.383Z,18.05
2023-04-09T10:59:27.363Z,18.05
2023-04-09T11:00:27.405Z,18.10
2023-04-09T11:01:27.459Z,18.06
2023-04-09T11:02:27.489Z,18.04
2023-04-09T11:03:27.824Z,18.08
2023-04-09T11:04:27.453Z,18.04
2023-04-09T11:05:27.452Z,17.96
2023-04-09T11:06:27.414Z,18.04
2023-04-09T11:07:27.427Z,17.99
2023-04-09T11:08:27.448Z,17.77
2023-04-09T11:09:27.442Z,17.94
2023-04-09T11:10:27.459Z,17.99
2023-04-09T11:11:27.442Z,17.95
2023-04-09T11:12:27.458Z,17.97
2023-04-09T11:13:27.464Z,17.93
2023-04-09T11:14:27.479Z,17.93
2023-04-09T11:15:27.490Z,17.91
2023-04-09T11:16:29.078Z,17.91
2023-04-09T11:17:27.487Z,17.90
2023-04-09T11:18:27.533Z,17.90
2023-04-09T11:19:27.496Z,17.90
2023-04-09T11:20:27.484Z,17.85
2023-04-09T11:21:27.490Z,17.92
2023-04-09T11:22:27.506Z,17.92
2023-04-09T11:23:27.535Z,17.93
2023-04-09T11:24:27.502Z,17.90
2023-04-09T11:25:27.535Z,17.84
2023-04-09T11:26:27.515Z,17.81
2023-04-09T11:27:27.538Z,17.86
2023-04-09T11:28:27.538Z,17.90
2023-04-09T11:29:27.539Z,17.88
2023-04-09T11:30:27.544Z,17.92
2023-04-09T11:31:27.560Z,17.85
2023-04-09T11:32:27.589Z,17.88
2023-04-09T11:33:27.528Z,17.90
2023-04-09T11:34:27.559Z,17.88
2023-04-09T11:35:27.548Z,17.88
2023-04-09T11:36:27.604Z,17.90
2023-04-09T11:37:27.573Z,17.84
2023-04-09T11:38:27.566Z,17.81
2023-04-09T11:39:27.565Z,17.82
2023-04-09T11:40:27.608Z,17.81
2023-04-09T11:41:27.692Z,17.81
2023-04-09T11:42:27.710Z,17.79
2023-04-09T11:43:27.684Z,17.81
2023-04-09T11:44:28.635Z,17.78
2023-04-09T11:45:27.703Z,17.78
2023-04-09T11:46:27.710Z,17.78
2023-04-09T11:47:27.714Z,17.76
2023-04-09T11:48:27.701Z,17.74
2023-04-09T11:49:27.698Z,17.73
2023-04-09T11:50:27.693Z,17.70
2023-04-09T11:51:27.706Z,17.71
2023-04-09T11:52:27.719Z,17.67
2023-04-09T11:53:27.730Z,17.69
2023-04-09T11:54:27.754Z,17.69
2023-04-09T11:55:27.824Z,17.62
2023-04-09T11:56:27.779Z,17.63
2023-04-09T11:57:27.762Z,17.56
2023-04-09T11:58:27.787Z,17.54
2023-04-09T11:59:27.806Z,17.60
2023-04-09T12:00:27.814Z,17.59
2023-04-09T12:01:27.797Z,17.51
2023-04-09T12:02:27.999Z,17.51
2023-04-09T12:03:28.048Z,17.54
2023-04-09T12:04:27.896Z,17.50
2023-04-09T12:05:27.854Z,17.52
2023-04-09T12:06:27.824Z,17.46
2023-04-09T12:07:27.830Z,17.51
2023-04-09T12:08:27.866Z,17.45
2023-04-09T12:09:27.892Z,17.46
2023-04-09T12:10:27.910Z,17.45
2023-04-09T12:11:27.895Z,17.41
2023-04-09T12:12:27.906Z,17.40
2023-04-09T12:13:27.894Z,17.45
2023-04-09T12:14:27.903Z,17.40
2023-04-09T12:15:27.918Z,17.41
2023-04-09T12:16:27.989Z,17.43
2023-04-09T12:17:27.980Z,17.35
2023-04-09T12:18:27.982Z,17.34
2023-04-09T12:19:27.969Z,17.34
2023-04-09T12:20:27.999Z,17.36
2023-04-09T12:21:28.011Z,17.24
2023-04-09T12:22:27.987Z,17.29
2023-04-09T12:23:28.028Z,17.21
2023-04-09T12:24:28.009Z,17.27
2023-04-09T12:25:28.016Z,17.23
2023-04-09T12:26:27.992Z,17.29
2023-04-09T12:27:28.012Z,17.27
2023-04-09T12:28:28.096Z,17.06
2023-04-09T12:29:28.025Z,17.13
2023-04-09T12:30:28.060Z,17.17
2023-04-09T12:31:28.069Z,17.09
2023-04-09T12:32:28.145Z,17.10
2023-04-09T12:33:28.062Z,17.12
2023-04-09T12:34:28.062Z,17.09
2023-04-09T12:35:28.115Z,16.98
2023-04-09T12:36:28.087Z,17.03
2023-04-09T12:37:28.110Z,16.95
2023-04-09T12:38:28.145Z,16.98
2023-04-09T12:39:28.143Z,16.98
2023-04-09T12:40:28.140Z,16.91
2023-04-09T12:41:28.170Z,16.90
2023-04-09T12:42:28.157Z,16.88
2023-04-09T12:43:28.174Z,16.91
2023-04-09T12:44:28.176Z,16.87
2023-04-09T12:45:28.189Z,16.88
2023-04-09T12:46:28.250Z,16.85
2023-04-09T12:47:28.196Z,16.82
2023-04-09T12:48:28.180Z,16.80
2023-04-09T12:49:28.172Z,16.80
2023-04-09T12:50:28.225Z,16.88
2023-04-09T12:51:28.218Z,16.73
2023-04-09T12:52:28.200Z,16.74